Terminal Aerodrome Forecast
Issued by NWS

Home | Current Version | Previous Version | Text Only | Print | Product List | Glossary On
Versions: 1 2 3 4 5 6 7 8 9 10 11 12 13 14 15 16 17
000
FTUS45 KSLC 280524
TAFBCE
TAF
KBCE 280524Z 2806/2906 32006KT P6SM FEW120
     FM281800 22009KT P6SM FEW090
     FM282200 32008KT P6SM SCT090
     FM290200 28006KT P6SM FEW120=

USA.gov is the U.S. government's official web portal to all federal, state and local government web resources and services.